Arroyo, Texas
Current Conditions -  °F | °C
As of 12:52 AM on Sunday 21 Dec 2014 (Local Time) from KHRL Reporting Station
Overcast Overcast  
Wind Chill: 57°   Ceiling: 4400
Heat Index: 57°   Visibility: 10mi
Dew Point: 54°   Wind: 13mph
Humidity: 89%   Direction: 350°N
Pressure: 30.11"   Gusts: NA
Location:  26.2089°N, 97.6849°W
Report Text: KHRL 210652Z 35011KT 10SM FEW013 OVC044 14/12 A3011 RMK AO2 SLP195 T01390122
Loading
Personal Weather Stations






























Interactive Weather Map New forecast layout! Learn more

10-Day Weather Forecast

Advertisements
Track Severe Weather on mobile